Time;durP1;ratioP1;P1;durP2;ratioP2;P2;SDS_P1;SDS_P2;PMS_P1;PMS_P2;Temp;Humidity;BMP_temperature;BMP_pressure;BME280_temperature;BME280_humidity;BME280_pressure;Samples;Min_cycle;Max_cycle;Signal;HPM_P1;HPM_P2
2021/01/21 00:01:29;;;;;;;4.60;1.63;;;10.60;99.90;;;;;;5064210;28;20102;-48
2021/01/21 00:03:54;;;;;;;4.55;1.60;;;10.50;99.90;;;;;;5062603;28;20521;-48
2021/01/21 00:06:20;;;;;;;5.00;1.52;;;10.40;99.90;;;;;;5063600;28;20037;-48
2021/01/21 00:08:45;;;;;;;7.55;1.48;;;10.30;99.90;;;;;;5063752;28;20369;-48
2021/01/21 00:11:11;;;;;;;4.82;1.70;;;10.30;99.90;;;;;;5062150;28;20526;-48
2021/01/21 00:13:37;;;;;;;6.40;1.42;;;10.30;99.90;;;;;;5062516;28;20024;-48
2021/01/21 00:16:02;;;;;;;8.48;1.88;;;10.30;99.90;;;;;;5062830;28;20329;-48
2021/01/21 00:18:28;;;;;;;3.38;1.65;;;10.30;99.90;;;;;;5063331;28;20394;-51
2021/01/21 00:20:54;;;;;;;3.63;1.60;;;10.30;99.90;;;;;;5066226;28;20426;-49
2021/01/21 00:23:19;;;;;;;2.53;1.48;;;10.10;99.90;;;;;;5067168;28;20039;-49
2021/01/21 00:25:46;;;;;;;4.47;1.45;;;10.20;99.90;;;;;;5066305;28;20410;-49
2021/01/21 00:28:12;;;;;;;5.47;1.25;;;10.10;99.90;;;;;;5066655;28;20556;-48
2021/01/21 00:30:39;;;;;;;7.70;1.50;;;10.10;99.90;;;;;;5066370;28;20028;-48
2021/01/21 00:33:06;;;;;;;6.90;1.55;;;10.10;99.90;;;;;;5066571;28;20056;-48
2021/01/21 00:35:31;;;;;;;5.75;1.38;;;10.00;99.90;;;;;;5065208;28;20020;-48
2021/01/21 00:37:57;;;;;;;6.05;1.60;;;10.00;99.90;;;;;;5067032;28;20397;-47
2021/01/21 00:40:22;;;;;;;7.75;1.60;;;10.00;99.90;;;;;;5066915;28;20021;-48
2021/01/21 00:42:48;;;;;;;6.93;1.95;;;10.00;99.90;;;;;;5066441;28;20401;-48
2021/01/21 00:45:15;;;;;;;4.82;1.40;;;10.00;99.90;;;;;;5066256;28;20055;-48
2021/01/21 00:47:40;;;;;;;2.00;1.00;;;10.00;99.90;;;;;;5064923;28;20025;-47
2021/01/21 00:50:06;;;;;;;2.50;1.00;;;10.10;99.90;;;;;;5066090;28;20039;-48
2021/01/21 00:52:32;;;;;;;3.58;1.08;;;10.10;99.90;;;;;;5066685;28;20489;-48
2021/01/21 00:54:57;;;;;;;2.22;1.00;;;10.10;99.90;;;;;;5066749;28;20017;-48
2021/01/21 00:57:23;;;;;;;3.88;1.10;;;10.10;99.90;;;;;;5066629;28;20020;-49
2021/01/21 00:59:49;;;;;;;2.38;1.08;;;10.10;99.90;;;;;;5064727;28;20020;-48
2021/01/21 01:02:14;;;;;;;1.52;0.90;;;10.10;99.90;;;;;;5066375;28;20021;-49
2021/01/21 01:04:40;;;;;;;2.47;1.15;;;10.10;99.90;;;;;;5066160;28;20346;-50
2021/01/21 01:07:06;;;;;;;2.13;0.77;;;10.10;99.90;;;;;;5065764;28;20486;-49
2021/01/21 01:09:31;;;;;;;4.25;0.75;;;10.10;99.90;;;;;;5066620;28;20039;-50
2021/01/21 01:11:58;;;;;;;2.85;0.90;;;10.00;99.90;;;;;;5065709;28;20548;-50
2021/01/21 01:14:24;;;;;;;2.80;1.02;;;10.00;99.90;;;;;;5065960;28;20029;-49
2021/01/21 01:16:49;;;;;;;2.13;0.90;;;10.00;99.90;;;;;;5065861;28;20101;-49
2021/01/21 01:19:18;;;;;;;2.85;1.20;;;;;;;;;;5066363;28;20117;-52
2021/01/21 01:21:44;;;;;;;2.08;0.88;;;;;;;;;;5063644;28;20426;-51
2021/01/21 01:24:10;;;;;;;5.70;1.13;;;9.90;99.90;;;;;;5065582;28;20033;-51
2021/01/21 01:26:36;;;;;;;4.88;0.90;;;9.90;99.90;;;;;;5065947;28;20655;-50
2021/01/21 01:29:02;;;;;;;1.33;0.88;;;9.90;99.90;;;;;;5066067;28;20039;-51
2021/01/21 01:31:28;;;;;;;1.45;0.90;;;9.90;99.90;;;;;;5063963;28;20021;-49
2021/01/21 01:33:53;;;;;;;2.38;0.98;;;9.80;99.90;;;;;;5046023;28;20565;-51
2021/01/21 01:36:20;;;;;;;2.15;1.02;;;9.80;99.90;;;;;;5065881;28;20021;-47
2021/01/21 01:38:45;;;;;;;2.08;0.90;;;9.90;99.90;;;;;;5066207;28;20070;-47
2021/01/21 01:41:11;;;;;;;0.95;0.80;;;9.90;99.90;;;;;;5065942;28;20117;-49
2021/01/21 01:43:38;;;;;;;3.33;1.10;;;9.90;99.90;;;;;;5066054;28;20032;-49
2021/01/21 01:46:06;;;;;;;2.78;0.77;;;9.90;99.90;;;;;;5065622;28;20462;-48
2021/01/21 01:48:32;;;;;;;2.00;0.90;;;9.90;99.90;;;;;;5065552;28;20055;-48
2021/01/21 01:51:02;;;;;;;1.73;0.75;;;9.90;99.90;;;;;;5064537;28;20028;-48
2021/01/21 01:53:33;;;;;;;3.40;0.80;;;9.80;99.90;;;;;;5066077;28;20504;-47
2021/01/21 01:55:59;;;;;;;3.38;1.05;;;9.80;99.90;;;;;;5065524;28;20494;-47
2021/01/21 01:58:26;;;;;;;1.55;0.70;;;9.80;99.90;;;;;;5065283;28;20074;-47
2021/01/21 02:00:57;;;;;;;1.83;0.88;;;9.80;99.90;;;;;;5064183;28;20635;-46
2021/01/21 02:03:22;;;;;;;5.35;0.80;;;9.80;99.90;;;;;;5065336;28;20052;-48
2021/01/21 02:05:52;;;;;;;2.47;0.70;;;9.70;99.90;;;;;;5065793;28;20029;-47
2021/01/21 02:08:22;;;;;;;2.38;0.82;;;9.70;99.90;;;;;;5065484;28;20419;-48
2021/01/21 02:10:48;;;;;;;3.35;0.95;;;9.60;99.90;;;;;;5064814;28;20124;-49
2021/01/21 02:13:39;;;;;;;2.83;1.00;;;9.60;99.90;;;;;;5065796;28;20119;-48
2021/01/21 02:16:14;;;;;;;1.30;0.65;;;9.50;99.90;;;;;;5064852;28;20568;-47
2021/01/21 02:18:59;;;;;;;2.45;0.80;;;9.50;99.90;;;;;;5065768;28;20047;-48
2021/01/21 02:21:58;;;;;;;1.33;0.80;;;9.40;99.90;;;;;;5065485;28;20096;-48
2021/01/21 02:25:04;;;;;;;3.33;0.80;;;9.40;99.90;;;;;;5065212;28;20039;-48
2021/01/21 02:27:45;;;;;;;4.18;0.90;;;9.40;99.90;;;;;;5065258;28;20103;-46
2021/01/21 02:30:23;;;;;;;2.33;0.80;;;9.40;99.90;;;;;;5065564;28;20032;-50
2021/01/21 02:33:18;;;;;;;2.15;0.80;;;9.40;99.90;;;;;;5064513;28;20020;-47
2021/01/21 02:35:44;;;;;;;;;;;9.40;99.90;;;;;;5065811;28;20035;-48
2021/01/21 02:38:12;;;;;;;2.28;1.10;;;9.30;99.90;;;;;;5065221;28;20349;-49
2021/01/21 02:40:41;;;;;;;1.58;0.80;;;9.30;99.90;;;;;;5065162;28;20153;-48
2021/01/21 02:43:11;;;;;;;1.73;0.75;;;9.30;99.90;;;;;;5064071;28;20052;-49
2021/01/21 02:45:37;;;;;;;1.90;0.70;;;9.40;99.90;;;;;;5064865;28;20031;-48
2021/01/21 02:48:04;;;;;;;0.90;0.50;;;9.50;99.90;;;;;;5064102;28;20082;-47
2021/01/21 02:50:30;;;;;;;2.10;0.80;;;9.50;99.90;;;;;;5064177;28;20029;-49
2021/01/21 02:53:01;;;;;;;2.25;1.10;;;9.40;99.90;;;;;;5063754;28;20028;-47
2021/01/21 02:55:39;;;;;;;1.02;0.60;;;9.50;99.90;;;;;;5064958;28;20020;-51
2021/01/21 02:58:12;;;;;;;1.60;0.60;;;9.40;99.90;;;;;;5064336;28;20114;-50
2021/01/21 03:00:39;;;;;;;2.25;0.90;;;9.40;99.90;;;;;;5064801;28;20108;-48
2021/01/21 03:03:12;;;;;;;1.65;0.57;;;9.50;99.90;;;;;;5064206;28;20017;-48
2021/01/21 03:05:38;;;;;;;1.17;0.55;;;9.50;99.90;;;;;;5065018;28;20024;-47
2021/01/21 03:08:05;;;;;;;1.33;0.85;;;9.40;99.90;;;;;;5064298;28;20033;-47
2021/01/21 03:10:31;;;;;;;1.85;0.50;;;9.40;99.90;;;;;;5064776;28;20048;-47
2021/01/21 03:12:58;;;;;;;2.15;0.65;;;9.50;99.90;;;;;;5064349;28;20505;-48
2021/01/21 03:15:25;;;;;;;1.08;0.68;;;9.40;99.90;;;;;;5064462;28;20367;-48
2021/01/21 03:17:51;;;;;;;1.63;0.80;;;9.50;99.90;;;;;;5064196;28;20407;-49
2021/01/21 03:20:17;;;;;;;0.82;0.50;;;9.50;99.90;;;;;;5064126;28;20024;-48
2021/01/21 03:22:43;;;;;;;0.80;0.50;;;9.50;99.90;;;;;;5065006;28;20032;-49
2021/01/21 03:25:10;;;;;;;0.60;0.40;;;9.50;99.90;;;;;;5065131;28;20020;-47
2021/01/21 03:27:36;;;;;;;1.15;0.52;;;9.50;99.90;;;;;;5064628;28;20035;-47
2021/01/21 03:30:04;;;;;;;1.17;0.57;;;9.50;99.90;;;;;;5064107;28;20104;-47
2021/01/21 03:32:30;;;;;;;1.27;0.57;;;9.50;99.90;;;;;;5044656;28;20133;-47
2021/01/21 03:34:57;;;;;;;1.33;0.57;;;9.50;99.90;;;;;;5065133;28;20100;-47
2021/01/21 03:37:22;;;;;;;1.05;0.50;;;9.40;99.90;;;;;;5063843;28;20024;-48
2021/01/21 03:39:48;;;;;;;0.63;0.45;;;9.50;99.90;;;;;;5063980;28;20363;-47
2021/01/21 03:42:14;;;;;;;0.85;0.40;;;9.50;99.90;;;;;;5064238;28;20115;-49
2021/01/21 03:44:39;;;;;;;0.95;0.60;;;9.60;99.90;;;;;;5064438;28;20047;-47
2021/01/21 03:47:05;;;;;;;1.35;0.50;;;9.60;99.90;;;;;;5063609;28;20119;-47
2021/01/21 03:49:33;;;;;;;0.50;0.40;;;9.60;99.90;;;;;;5063560;28;20029;-48
2021/01/21 03:52:00;;;;;;;1.23;0.52;;;9.60;99.90;;;;;;5064069;28;20024;-49
2021/01/21 03:54:26;;;;;;;0.60;0.40;;;9.50;99.90;;;;;;5067148;28;20025;-48
2021/01/21 03:56:52;;;;;;;1.40;0.60;;;9.50;99.90;;;;;;5068401;28;20029;-47
2021/01/21 03:59:18;;;;;;;0.88;0.40;;;9.50;99.90;;;;;;5067470;28;20062;-48
2021/01/21 04:01:43;;;;;;;0.55;0.50;;;9.50;99.90;;;;;;5067752;28;20112;-48
2021/01/21 04:04:09;;;;;;;0.90;0.52;;;9.50;99.90;;;;;;5067571;28;20039;-50
2021/01/21 04:06:34;;;;;;;0.75;0.50;;;9.50;99.90;;;;;;5067777;28;20494;-47
2021/01/21 04:09:00;;;;;;;0.70;0.60;;;9.50;99.90;;;;;;5066310;28;20036;-47
2021/01/21 04:11:26;;;;;;;1.25;0.60;;;9.50;99.90;;;;;;5068564;28;20505;-49
2021/01/21 04:13:52;;;;;;;1.02;0.70;;;9.50;99.90;;;;;;5067971;28;20486;-47
2021/01/21 04:16:17;;;;;;;1.55;1.25;;;9.50;99.90;;;;;;5067812;28;20051;-48
2021/01/21 04:18:43;;;;;;;1.27;0.80;;;9.60;99.90;;;;;;5067605;28;20112;-47
2021/01/21 04:21:09;;;;;;;0.82;0.50;;;9.60;99.90;;;;;;5067629;28;20100;-48
2021/01/21 04:23:35;;;;;;;3.05;0.82;;;9.60;99.90;;;;;;5067492;28;20032;-47
2021/01/21 04:26:02;;;;;;;1.10;0.60;;;9.50;99.90;;;;;;5067291;28;20050;-47
2021/01/21 04:28:28;;;;;;;1.00;0.68;;;9.50;99.90;;;;;;5067860;28;20039;-50
2021/01/21 04:30:55;;;;;;;0.98;0.50;;;9.50;99.90;;;;;;5067687;28;20056;-47
2021/01/21 04:33:21;;;;;;;0.75;0.50;;;9.40;99.90;;;;;;5067323;28;20086;-47
2021/01/21 04:35:47;;;;;;;1.13;0.70;;;9.40;99.90;;;;;;5067384;28;20028;-47
2021/01/21 04:38:13;;;;;;;1.23;0.60;;;9.50;99.90;;;;;;5067452;28;20092;-48
2021/01/21 04:40:39;;;;;;;1.08;0.73;;;9.50;99.90;;;;;;5067498;28;20016;-47
2021/01/21 04:43:06;;;;;;;0.60;0.52;;;9.50;99.90;;;;;;5067005;28;20028;-47
2021/01/21 04:45:32;;;;;;;1.73;0.70;;;9.50;99.90;;;;;;5067509;28;20078;-47
2021/01/21 04:48:00;;;;;;;0.75;0.55;;;9.50;99.90;;;;;;5066209;28;20036;-48
2021/01/21 04:50:26;;;;;;;1.70;0.65;;;9.60;99.90;;;;;;5067205;28;20305;-48
2021/01/21 04:52:55;;;;;;;0.70;0.60;;;9.60;99.90;;;;;;5067589;28;20064;-48
2021/01/21 04:55:27;;;;;;;1.00;0.55;;;9.60;99.90;;;;;;5067190;28;20039;-48
2021/01/21 04:58:21;;;;;;;2.25;0.68;;;9.60;99.90;;;;;;5067316;28;20032;-46
2021/01/21 05:00:48;;;;;;;0.63;0.60;;;9.50;99.90;;;;;;5066815;28;20128;-48
2021/01/21 05:03:14;;;;;;;1.60;0.65;;;9.50;99.90;;;;;;5067094;28;20020;-47
2021/01/21 05:05:40;;;;;;;0.65;0.60;;;9.50;99.90;;;;;;5065435;28;20105;-49
2021/01/21 05:08:06;;;;;;;0.77;0.47;;;9.50;99.90;;;;;;5066764;28;20033;-49
2021/01/21 05:10:33;;;;;;;0.73;0.70;;;9.50;99.90;;;;;;5066848;28;20059;-49
2021/01/21 05:12:59;;;;;;;2.13;0.65;;;9.40;99.90;;;;;;5066412;28;20505;-48
2021/01/21 05:15:26;;;;;;;2.40;0.55;;;9.40;99.90;;;;;;5067212;28;20103;-48
2021/01/21 05:17:53;;;;;;;0.60;0.50;;;9.40;99.90;;;;;;5066576;28;20052;-49
2021/01/21 05:20:23;;;;;;;0.47;0.45;;;9.40;99.90;;;;;;5066640;28;20024;-48
2021/01/21 05:22:54;;;;;;;0.60;0.50;;;9.40;99.90;;;;;;5066452;28;20082;-47
2021/01/21 05:25:20;;;;;;;1.42;0.70;;;9.40;99.90;;;;;;5066354;28;20745;-47
2021/01/21 05:27:46;;;;;;;0.60;0.50;;;9.40;99.90;;;;;;5066232;28;20028;-48
2021/01/21 05:30:14;;;;;;;1.20;0.50;;;9.50;99.90;;;;;;5064863;28;20036;-47
2021/01/21 05:32:40;;;;;;;1.45;0.80;;;9.50;99.90;;;;;;5067080;28;20032;-47
2021/01/21 05:35:07;;;;;;;0.50;0.40;;;9.50;99.90;;;;;;5065412;28;20422;-48
2021/01/21 05:37:38;;;;;;;0.75;0.50;;;9.50;99.90;;;;;;5065802;28;20028;-49
2021/01/21 05:40:06;;;;;;;1.15;0.50;;;9.40;99.90;;;;;;5065969;28;20013;-47
2021/01/21 05:42:35;;;;;;;1.50;0.52;;;9.50;99.90;;;;;;5066194;28;20629;-47
2021/01/21 05:45:02;;;;;;;1.50;0.90;;;9.50;99.90;;;;;;5065219;28;20024;-47
2021/01/21 05:47:29;;;;;;;2.75;1.33;;;9.40;99.90;;;;;;5065574;28;20027;-47
2021/01/21 05:49:55;;;;;;;2.40;0.60;;;9.40;99.90;;;;;;5047766;28;20452;-48
2021/01/21 05:52:21;;;;;;;0.80;0.65;;;9.40;99.90;;;;;;5066010;28;20103;-48
2021/01/21 05:54:48;;;;;;;1.05;0.60;;;9.50;99.90;;;;;;5065697;28;20096;-47
2021/01/21 05:57:15;;;;;;;2.92;0.73;;;9.40;99.90;;;;;;5065856;28;20027;-47
2021/01/21 05:59:43;;;;;;;1.00;0.70;;;9.50;99.90;;;;;;5065486;28;20021;-46
2021/01/21 06:02:09;;;;;;;0.70;0.70;;;9.40;99.90;;;;;;5066255;28;20029;-48
2021/01/21 06:04:36;;;;;;;1.17;0.70;;;9.40;99.90;;;;;;5066002;28;20394;-48
2021/01/21 06:07:04;;;;;;;1.83;0.80;;;9.40;99.90;;;;;;5045966;28;20486;-48
2021/01/21 06:09:31;;;;;;;1.63;0.73;;;9.40;99.90;;;;;;5065533;28;20098;-48
2021/01/21 06:12:01;;;;;;;0.50;0.50;;;9.40;99.90;;;;;;5065685;28;20417;-48
2021/01/21 06:14:28;;;;;;;1.00;0.50;;;9.50;99.90;;;;;;5065547;28;20035;-48
2021/01/21 06:16:54;;;;;;;1.02;0.70;;;9.40;99.90;;;;;;5064276;28;20096;-48
2021/01/21 06:19:20;;;;;;;1.55;0.70;;;9.40;99.90;;;;;;5065350;28;20052;-47
2021/01/21 06:22:17;;;;;;;1.10;0.63;;;9.40;99.90;;;;;;5065512;28;20440;-49
2021/01/21 06:24:46;;;;;;;1.75;0.63;;;9.50;99.90;;;;;;5048880;28;20051;-50
2021/01/21 06:27:14;;;;;;;1.50;0.70;;;9.50;99.90;;;;;;5065393;28;20020;-47
2021/01/21 06:29:45;;;;;;;0.98;0.70;;;9.60;99.90;;;;;;5065060;28;20048;-47
2021/01/21 06:32:14;;;;;;;1.23;0.60;;;9.50;99.90;;;;;;5065014;28;20191;-49
2021/01/21 06:34:42;;;;;;;1.95;0.52;;;9.50;99.90;;;;;;5065728;28;20388;-47
2021/01/21 06:37:15;;;;;;;0.70;0.60;;;9.50;99.90;;;;;;5065549;28;20104;-48
2021/01/21 06:39:53;;;;;;;1.52;0.70;;;9.50;99.90;;;;;;5065167;28;20028;-47
2021/01/21 06:42:27;;;;;;;1.27;0.57;;;9.50;99.90;;;;;;5065175;28;20131;-49
2021/01/21 06:44:54;;;;;;;1.40;0.60;;;9.50;99.90;;;;;;5064419;28;20020;-47
2021/01/21 06:47:20;;;;;;;1.02;0.93;;;9.50;99.90;;;;;;5044851;28;20159;-49
2021/01/21 06:49:53;;;;;;;2.25;0.90;;;9.50;99.90;;;;;;5064870;28;20028;-49
2021/01/21 06:52:19;;;;;;;1.25;0.70;;;9.50;99.90;;;;;;5065014;28;20029;-47
2021/01/21 06:54:46;;;;;;;0.75;0.60;;;9.50;99.90;;;;;;5064558;28;20028;-47
2021/01/21 06:57:34;;;;;;;1.13;0.70;;;9.50;99.90;;;;;;5064550;28;20025;-47
2021/01/21 07:00:10;;;;;;;2.28;0.50;;;9.50;99.90;;;;;;5063769;28;20020;-48
2021/01/21 07:02:45;;;;;;;0.55;0.55;;;9.50;99.90;;;;;;5065433;28;20036;-47
2021/01/21 07:05:19;;;;;;;1.20;0.88;;;9.40;99.90;;;;;;5064611;28;20028;-48
2021/01/21 07:07:58;;;;;;;1.35;0.90;;;9.50;99.90;;;;;;5064431;28;20082;-46
2021/01/21 07:10:45;;;;;;;0.82;0.68;;;9.50;99.90;;;;;;5064731;28;20051;-47
2021/01/21 07:13:29;;;;;;;1.08;0.60;;;9.50;99.90;;;;;;5064396;28;20032;-48
2021/01/21 07:16:03;;;;;;;3.65;0.90;;;9.50;99.90;;;;;;5064293;28;20035;-47
2021/01/21 07:18:36;;;;;;;1.83;0.82;;;9.50;99.90;;;;;;5064766;28;20021;-47
2021/01/21 07:21:10;;;;;;;2.13;1.10;;;9.60;99.90;;;;;;5064555;28;20111;-49
2021/01/21 07:23:51;;;;;;;4.72;1.02;;;9.50;99.90;;;;;;5065260;28;20395;-47
2021/01/21 07:26:27;;;;;;;2.30;0.90;;;9.50;99.90;;;;;;5064964;28;20032;-48
2021/01/21 07:29:01;;;;;;;2.45;1.00;;;9.60;99.90;;;;;;5065658;28;20032;-48
2021/01/21 07:31:26;;;;;;;1.40;1.00;;;9.50;99.90;;;;;;5068831;28;20100;-48
2021/01/21 07:34:20;;;;;;;1.95;1.33;;;9.60;99.90;;;;;;5068456;28;20036;-48
2021/01/21 07:36:45;;;;;;;1.00;0.90;;;9.60;99.90;;;;;;5068480;28;20035;-48
2021/01/21 07:39:11;;;;;;;1.80;0.95;;;9.50;99.90;;;;;;5068195;28;20033;-47
2021/01/21 07:41:42;;;;;;;1.35;0.77;;;9.50;99.90;;;;;;5069171;28;20115;-47
2021/01/21 07:44:08;;;;;;;1.40;0.82;;;9.50;99.90;;;;;;5068426;28;20494;-50
2021/01/21 07:46:34;;;;;;;1.55;1.02;;;9.60;99.90;;;;;;5067258;28;20085;-48
2021/01/21 07:49:22;;;;;;;1.85;0.98;;;9.60;99.90;;;;;;5067497;28;20032;-47
2021/01/21 07:52:04;;;;;;;1.67;1.00;;;9.60;99.90;;;;;;5067702;28;20835;-47
2021/01/21 07:54:42;;;;;;;1.60;0.98;;;9.60;99.90;;;;;;5068112;28;20028;-49
2021/01/21 07:57:08;;;;;;;1.88;0.90;;;9.70;99.90;;;;;;5068548;28;20035;-47
2021/01/21 08:00:00;;;;;;;1.08;0.80;;;9.60;99.90;;;;;;5065859;28;20028;-47
2021/01/21 08:02:44;;;;;;;0.90;0.90;;;9.70;99.90;;;;;;5067628;28;20533;-47
2021/01/21 08:05:11;;;;;;;;;;;9.70;99.90;;;;;;5068146;28;20032;-48
2021/01/21 08:07:50;;;;;;;1.80;0.98;;;9.70;99.90;;;;;;5068522;28;19904;-47
2021/01/21 08:10:24;;;;;;;4.15;0.85;;;9.70;99.90;;;;;;5066859;28;20029;-48
2021/01/21 08:12:54;;;;;;;1.02;0.73;;;9.70;99.90;;;;;;5067754;28;20024;-48
2021/01/21 08:15:21;;;;;;;2.20;1.17;;;9.70;99.90;;;;;;5067871;28;20055;-46
2021/01/21 08:17:51;;;;;;;1.75;1.00;;;9.70;99.90;;;;;;5067931;28;20031;-47
2021/01/21 08:20:19;;;;;;;1.55;1.13;;;9.70;99.90;;;;;;5067470;28;20094;-47
2021/01/21 08:22:52;;;;;;;1.83;0.88;;;9.70;99.90;;;;;;5067784;28;20020;-47
2021/01/21 08:25:17;;;;;;;3.40;1.00;;;9.70;99.90;;;;;;5066809;28;20029;-47
2021/01/21 08:27:48;;;;;;;2.05;1.02;;;9.80;99.90;;;;;;5067578;28;20474;-51
2021/01/21 08:30:22;;;;;;;1.65;1.15;;;9.80;99.90;;;;;;5067881;28;20023;-50
2021/01/21 08:32:52;;;;;;;3.92;1.35;;;9.80;99.90;;;;;;5068870;28;20036;-51
2021/01/21 08:35:22;;;;;;;1.77;1.10;;;9.80;99.90;;;;;;5068966;28;20048;-51
2021/01/21 08:37:50;;;;;;;2.10;1.00;;;9.80;99.90;;;;;;5068041;28;20127;-50
2021/01/21 08:40:18;;;;;;;2.58;0.90;;;9.80;99.90;;;;;;5067881;28;20029;-47
2021/01/21 08:42:46;;;;;;;1.35;0.90;;;9.80;99.90;;;;;;5069006;28;20670;-48
2021/01/21 08:45:12;;;;;;;2.13;1.00;;;9.80;99.90;;;;;;5068480;28;20031;-47
2021/01/21 08:47:43;;;;;;;2.35;1.25;;;9.80;99.90;;;;;;5068455;28;20112;-50
2021/01/21 08:50:09;;;;;;;1.73;1.10;;;9.90;99.90;;;;;;5069047;28;20036;-49
2021/01/21 08:52:36;;;;;;;3.30;1.50;;;9.90;99.90;;;;;;5069457;28;20020;-47
2021/01/21 08:55:03;;;;;;;2.22;1.35;;;10.10;99.90;;;;;;5068387;28;20016;-47
2021/01/21 08:57:29;;;;;;;1.50;1.10;;;10.10;99.90;;;;;;5067128;28;20020;-51
2021/01/21 09:00:09;;;;;;;1.88;1.10;;;10.20;99.90;;;;;;5068022;28;20029;-49
2021/01/21 09:02:42;;;;;;;1.55;1.33;;;10.20;99.90;;;;;;5068319;28;20020;-49
2021/01/21 09:05:08;;;;;;;2.50;1.20;;;10.30;99.90;;;;;;5068755;28;20025;-51
2021/01/21 09:07:34;;;;;;;2.45;1.30;;;10.30;99.90;;;;;;5068429;28;20086;-50
2021/01/21 09:10:10;;;;;;;3.55;1.40;;;10.40;99.90;;;;;;5068226;28;20057;-48
2021/01/21 09:12:36;;;;;;;2.50;1.17;;;10.50;99.90;;;;;;5065345;28;20024;-48
2021/01/21 09:15:06;;;;;;;1.83;1.13;;;10.50;99.90;;;;;;5066412;28;20658;-48
2021/01/21 09:17:33;;;;;;;1.58;1.30;;;10.50;99.90;;;;;;5066897;28;20078;-47
2021/01/21 09:20:00;;;;;;;2.72;1.50;;;10.50;99.90;;;;;;5066416;28;20056;-47
2021/01/21 09:22:36;;;;;;;2.72;1.27;;;10.60;99.90;;;;;;5065738;28;20137;-49
2021/01/21 09:25:05;;;;;;;3.00;1.60;;;10.70;99.90;;;;;;5065635;28;20406;-47
2021/01/21 09:27:34;;;;;;;2.72;1.50;;;10.80;99.90;;;;;;5066628;28;20032;-47
2021/01/21 09:30:01;;;;;;;3.35;1.67;;;10.80;99.90;;;;;;5066013;28;20502;-48
2021/01/21 09:32:32;;;;;;;4.03;1.92;;;10.90;99.90;;;;;;5063828;28;20547;-47
2021/01/21 09:34:59;;;;;;;3.47;2.28;;;11.00;99.90;;;;;;5066209;28;20020;-47
2021/01/21 09:37:27;;;;;;;2.85;1.85;;;11.10;99.90;;;;;;5066096;28;20542;-48
2021/01/21 09:39:53;;;;;;;3.97;1.80;;;11.10;99.90;;;;;;5065865;28;20028;-47
2021/01/21 09:42:19;;;;;;;3.65;1.58;;;11.10;99.90;;;;;;5067967;28;20028;-51
2021/01/21 09:44:45;;;;;;;1.83;1.35;;;11.00;99.90;;;;;;5066746;28;20119;-50
2021/01/21 09:47:11;;;;;;;3.33;1.40;;;11.10;99.90;;;;;;5067209;28;20115;-48
2021/01/21 09:49:37;;;;;;;3.63;1.60;;;11.00;99.90;;;;;;5068330;28;20035;-47
2021/01/21 09:52:05;;;;;;;3.65;1.50;;;11.00;99.90;;;;;;5067272;28;20028;-50
2021/01/21 09:54:32;;;;;;;2.70;1.60;;;11.00;99.90;;;;;;5066753;28;20536;-50
2021/01/21 09:56:58;;;;;;;2.67;1.25;;;11.00;99.90;;;;;;5065732;28;20479;-49
2021/01/21 09:59:23;;;;;;;2.15;1.45;;;11.00;99.90;;;;;;5065289;28;20078;-49
2021/01/21 10:01:50;;;;;;;3.10;1.40;;;11.00;99.90;;;;;;5065367;28;20052;-49
2021/01/21 10:04:16;;;;;;;2.67;1.40;;;11.00;99.90;;;;;;5065529;28;20060;-47
2021/01/21 10:06:41;;;;;;;2.13;1.23;;;11.00;99.90;;;;;;5065508;28;20291;-48
2021/01/21 10:09:07;;;;;;;2.38;1.40;;;11.00;99.90;;;;;;5065777;28;20021;-48
2021/01/21 10:11:34;;;;;;;2.63;1.30;;;11.10;99.90;;;;;;5066167;28;20054;-47
2021/01/21 10:14:01;;;;;;;2.10;1.60;;;11.10;99.90;;;;;;5065450;28;20108;-49
2021/01/21 10:16:27;;;;;;;2.80;1.80;;;11.20;99.90;;;;;;5065450;28;20020;-49
2021/01/21 10:18:53;;;;;;;4.05;1.30;;;11.20;99.90;;;;;;5065321;28;20020;-47
2021/01/21 10:21:20;;;;;;;3.42;2.25;;;11.20;99.90;;;;;;5065817;28;20056;-48
2021/01/21 10:23:46;;;;;;;2.05;1.52;;;11.20;99.90;;;;;;5065606;28;20085;-50
2021/01/21 10:26:12;;;;;;;4.53;2.22;;;11.30;99.90;;;;;;5065226;28;20131;-47
2021/01/21 10:28:39;;;;;;;2.05;1.30;;;11.30;99.90;;;;;;5065894;28;20140;-48
2021/01/21 10:31:05;;;;;;;2.55;1.50;;;11.30;99.90;;;;;;5065357;28;20509;-49
2021/01/21 10:33:32;;;;;;;1.85;1.48;;;11.40;99.90;;;;;;5065239;28;20025;-48
2021/01/21 10:35:58;;;;;;;3.85;1.60;;;11.40;99.90;;;;;;5064784;28;20486;-47
2021/01/21 10:38:23;;;;;;;2.33;1.30;;;11.50;99.90;;;;;;5064973;28;20354;-50
2021/01/21 10:40:49;;;;;;;2.47;1.27;;;11.60;99.90;;;;;;5065005;28;20074;-47
2021/01/21 10:43:16;;;;;;;2.72;1.23;;;11.70;99.90;;;;;;5064949;28;20072;-48
2021/01/21 10:45:42;;;;;;;2.80;1.55;;;11.70;99.90;;;;;;5065265;28;20501;-47
2021/01/21 10:48:09;;;;;;;3.97;1.63;;;11.80;99.90;;;;;;5065283;28;20035;-49
2021/01/21 10:50:36;;;;;;;3.33;1.77;;;11.90;99.90;;;;;;5047302;28;20036;-48
2021/01/21 10:53:02;;;;;;;3.58;1.60;;;11.90;99.90;;;;;;5064453;28;20052;-47
2021/01/21 10:55:27;;;;;;;3.03;1.38;;;11.90;99.90;;;;;;5065008;28;20059;-48
2021/01/21 10:57:54;;;;;;;3.78;1.45;;;11.90;99.90;;;;;;5064445;28;20028;-47
2021/01/21 11:00:20;;;;;;;4.10;1.58;;;11.90;99.90;;;;;;5064115;28;20521;-48
2021/01/21 11:02:46;;;;;;;5.15;1.95;;;11.90;99.90;;;;;;5046731;28;20028;-49
2021/01/21 11:05:13;;;;;;;3.63;1.73;;;11.90;99.90;;;;;;5064506;28;20024;-48
2021/01/21 11:07:40;;;;;;;2.60;1.52;;;12.00;99.90;;;;;;5065532;28;20607;-47
2021/01/21 11:10:07;;;;;;;2.25;1.50;;;12.10;99.90;;;;;;5065018;28;20029;-47
2021/01/21 11:12:32;;;;;;;3.05;1.60;;;12.20;99.90;;;;;;5064630;28;20058;-47
2021/01/21 11:14:58;;;;;;;1.80;1.40;;;12.20;99.90;;;;;;5064547;28;20040;-48
2021/01/21 11:17:24;;;;;;;2.10;1.30;;;12.30;99.90;;;;;;5062552;28;20100;-50
2021/01/21 11:19:50;;;;;;;3.00;1.58;;;12.50;99.90;;;;;;5065211;28;20024;-49
2021/01/21 11:22:16;;;;;;;3.80;1.70;;;12.40;99.90;;;;;;5066085;28;20037;-49
2021/01/21 11:24:42;;;;;;;4.72;1.88;;;12.30;99.90;;;;;;5066262;28;20077;-52
2021/01/21 11:27:07;;;;;;;5.05;1.50;;;12.30;99.90;;;;;;5065465;28;20100;-50
2021/01/21 11:29:33;;;;;;;2.42;1.33;;;12.40;99.90;;;;;;5064689;28;20039;-49
2021/01/21 11:31:59;;;;;;;2.35;1.60;;;12.40;99.90;;;;;;5062616;28;20036;-49
2021/01/21 11:34:25;;;;;;;4.38;1.70;;;12.30;99.90;;;;;;5063763;28;20056;-49
2021/01/21 11:36:51;;;;;;;2.47;1.48;;;12.30;99.90;;;;;;5063850;28;20027;-49
2021/01/21 11:39:17;;;;;;;3.78;1.90;;;12.30;99.90;;;;;;5063802;28;20025;-48
2021/01/21 11:41:44;;;;;;;3.75;1.63;;;12.20;99.90;;;;;;5062568;28;20849;-48
2021/01/21 11:44:09;;;;;;;2.90;1.70;;;12.20;99.90;;;;;;5064426;28;20052;-48
2021/01/21 11:46:35;;;;;;;3.80;1.80;;;12.30;99.90;;;;;;5064003;28;20521;-47
2021/01/21 11:49:01;;;;;;;2.95;1.58;;;12.30;99.90;;;;;;5063558;28;20389;-48
2021/01/21 11:51:28;;;;;;;4.15;1.52;;;12.30;99.90;;;;;;5064152;28;20460;-48
2021/01/21 11:53:53;;;;;;;2.88;1.67;;;12.30;99.90;;;;;;5062458;28;20032;-50
2021/01/21 11:56:20;;;;;;;2.15;1.65;;;12.30;99.90;;;;;;5063433;28;20082;-48
2021/01/21 11:58:46;;;;;;;3.15;1.55;;;12.30;99.90;;;;;;5063534;28;20067;-48
2021/01/21 12:01:12;;;;;;;8.02;2.00;;;12.20;99.90;;;;;;5063238;28;20048;-48
2021/01/21 12:03:39;;;;;;;5.18;1.85;;;12.20;99.90;;;;;;5064501;28;20024;-49
2021/01/21 12:06:05;;;;;;;4.78;1.48;;;12.30;99.90;;;;;;5062320;28;20051;-49
2021/01/21 12:08:30;;;;;;;1.92;1.33;;;12.30;99.90;;;;;;5063609;28;20498;-48
2021/01/21 12:10:56;;;;;;;1.45;1.35;;;12.30;99.90;;;;;;5062263;28;20082;-48
2021/01/21 12:13:23;;;;;;;4.20;2.30;;;12.30;99.90;;;;;;5063525;28;20077;-46
2021/01/21 12:15:48;;;;;;;3.88;1.98;;;12.30;99.90;;;;;;5065906;28;20387;-48
2021/01/21 12:18:14;;;;;;;3.75;1.75;;;12.20;99.90;;;;;;5067159;28;20082;-47
2021/01/21 12:20:40;;;;;;;3.53;1.42;;;12.20;99.90;;;;;;5067006;28;20029;-48
2021/01/21 12:23:06;;;;;;;2.90;1.88;;;12.20;99.90;;;;;;5067430;28;20040;-48
2021/01/21 12:25:32;;;;;;;3.15;1.67;;;12.20;99.90;;;;;;5066977;28;20036;-48
2021/01/21 12:27:58;;;;;;;5.63;2.00;;;12.20;99.90;;;;;;5066389;28;20028;-48
2021/01/21 12:30:24;;;;;;;3.53;1.80;;;12.20;99.90;;;;;;5065287;28;20044;-49
2021/01/21 12:32:50;;;;;;;7.00;2.35;;;12.10;99.90;;;;;;5066816;28;20024;-48
2021/01/21 12:35:16;;;;;;;5.65;2.15;;;12.10;99.90;;;;;;5066891;28;20538;-47
2021/01/21 12:37:42;;;;;;;4.65;2.05;;;12.00;99.90;;;;;;5049917;28;20116;-48
2021/01/21 12:40:09;;;;;;;2.17;1.60;;;12.00;99.90;;;;;;5047239;28;20124;-49
2021/01/21 12:42:35;;;;;;;4.20;2.50;;;12.00;99.90;;;;;;5046918;28;20025;-51
2021/01/21 12:45:01;;;;;;;5.50;1.77;;;12.00;99.90;;;;;;5046519;28;20033;-51
2021/01/21 12:47:27;;;;;;;3.13;1.85;;;12.00;99.90;;;;;;5046752;28;20051;-48
2021/01/21 12:49:52;;;;;;;4.03;2.10;;;12.00;99.90;;;;;;5063497;28;20048;-48
2021/01/21 12:52:18;;;;;;;5.72;2.10;;;12.00;99.90;;;;;;5066907;28;20490;-49
2021/01/21 12:54:47;;;;;;;5.57;1.95;;;12.00;99.90;;;;;;5066736;28;20088;-48
2021/01/21 12:57:18;;;;;;;5.60;2.50;;;12.00;99.90;;;;;;5060915;28;20109;-48
2021/01/21 12:59:45;;;;;;;4.53;2.30;;;11.90;99.90;;;;;;5060171;28;20028;-49